sensor_id;sensor_type;location;lat;lon;timestamp;temperature;humidity
7232;DHT22;3657;49.630;11.018;2022-11-15T00:00:28;7.90;99.90
7232;DHT22;3657;49.630;11.018;2022-11-15T00:02:55;7.90;99.90
7232;DHT22;3657;49.630;11.018;2022-11-15T00:05:22;7.90;99.90
7232;DHT22;3657;49.630;11.018;2022-11-15T00:07:49;7.90;99.90
7232;DHT22;3657;49.630;11.018;2022-11-15T00:10:16;7.90;99.90
7232;DHT22;3657;49.630;11.018;2022-11-15T00:12:44;7.90;99.90
7232;DHT22;3657;49.630;11.018;2022-11-15T00:15:10;7.90;99.90
7232;DHT22;3657;49.630;11.018;2022-11-15T00:17:37;7.90;99.90
7232;DHT22;3657;49.630;11.018;2022-11-15T00:20:05;7.90;99.90
7232;DHT22;3657;49.630;11.018;2022-11-15T00:22:32;7.90;99.90
7232;DHT22;3657;49.630;11.018;2022-11-15T00:24:59;7.80;99.90
7232;DHT22;3657;49.630;11.018;2022-11-15T00:27:26;7.80;99.90
7232;DHT22;3657;49.630;11.018;2022-11-15T00:29:55;7.80;99.90
7232;DHT22;3657;49.630;11.018;2022-11-15T00:32:21;7.80;99.90
7232;DHT22;3657;49.630;11.018;2022-11-15T00:34:48;7.70;99.90
7232;DHT22;3657;49.630;11.018;2022-11-15T00:37:15;7.70;99.90
7232;DHT22;3657;49.630;11.018;2022-11-15T00:39:41;7.70;99.90
7232;DHT22;3657;49.630;11.018;2022-11-15T00:42:08;7.70;99.90
7232;DHT22;3657;49.630;11.018;2022-11-15T00:44:35;7.70;99.90
7232;DHT22;3657;49.630;11.018;2022-11-15T00:47:03;7.70;99.90
7232;DHT22;3657;49.630;11.018;2022-11-15T00:49:30;7.70;99.90
7232;DHT22;3657;49.630;11.018;2022-11-15T00:51:56;7.60;99.90
7232;DHT22;3657;49.630;11.018;2022-11-15T00:54:23;7.50;99.90
7232;DHT22;3657;49.630;11.018;2022-11-15T00:56:50;7.50;99.90
7232;DHT22;3657;49.630;11.018;2022-11-15T00:59:16;7.50;99.90
7232;DHT22;3657;49.630;11.018;2022-11-15T01:01:43;7.50;99.90
7232;DHT22;3657;49.630;11.018;2022-11-15T01:04:11;7.50;99.90
7232;DHT22;3657;49.630;11.018;2022-11-15T01:06:38;7.50;99.90
7232;DHT22;3657;49.630;11.018;2022-11-15T01:09:04;7.50;99.90
7232;DHT22;3657;49.630;11.018;2022-11-15T01:11:31;7.40;99.90
7232;DHT22;3657;49.630;11.018;2022-11-15T01:13:58;7.40;99.90
7232;DHT22;3657;49.630;11.018;2022-11-15T01:16:24;7.40;99.90
7232;DHT22;3657;49.630;11.018;2022-11-15T01:18:51;7.30;99.90
7232;DHT22;3657;49.630;11.018;2022-11-15T01:21:19;7.40;99.90
7232;DHT22;3657;49.630;11.018;2022-11-15T01:23:46;7.40;99.90
7232;DHT22;3657;49.630;11.018;2022-11-15T01:26:14;7.40;99.90
7232;DHT22;3657;49.630;11.018;2022-11-15T01:28:42;7.30;99.90
7232;DHT22;3657;49.630;11.018;2022-11-15T01:31:12;7.30;99.90
7232;DHT22;3657;49.630;11.018;2022-11-15T01:33:39;7.30;99.90
7232;DHT22;3657;49.630;11.018;2022-11-15T01:36:08;7.30;99.90
7232;DHT22;3657;49.630;11.018;2022-11-15T01:38:37;7.30;99.90
7232;DHT22;3657;49.630;11.018;2022-11-15T01:41:04;7.30;99.90
7232;DHT22;3657;49.630;11.018;2022-11-15T01:43:32;7.30;99.90
7232;DHT22;3657;49.630;11.018;2022-11-15T01:46:03;7.30;99.90
7232;DHT22;3657;49.630;11.018;2022-11-15T01:48:32;7.20;99.90
7232;DHT22;3657;49.630;11.018;2022-11-15T01:51:01;7.20;99.90
7232;DHT22;3657;49.630;11.018;2022-11-15T01:53:29;7.20;99.90
7232;DHT22;3657;49.630;11.018;2022-11-15T01:55:58;7.10;99.90
7232;DHT22;3657;49.630;11.018;2022-11-15T01:58:25;7.20;99.90
7232;DHT22;3657;49.630;11.018;2022-11-15T02:00:51;7.10;99.90
7232;DHT22;3657;49.630;11.018;2022-11-15T02:03:19;7.10;99.90
7232;DHT22;3657;49.630;11.018;2022-11-15T02:05:49;7.00;99.90
7232;DHT22;3657;49.630;11.018;2022-11-15T02:08:16;7.10;99.90
7232;DHT22;3657;49.630;11.018;2022-11-15T02:10:46;7.20;99.90
7232;DHT22;3657;49.630;11.018;2022-11-15T02:13:15;7.10;99.90
7232;DHT22;3657;49.630;11.018;2022-11-15T02:15:51;7.10;99.90
7232;DHT22;3657;49.630;11.018;2022-11-15T02:18:23;7.00;99.90
7232;DHT22;3657;49.630;11.018;2022-11-15T02:21:10;7.10;99.90
7232;DHT22;3657;49.630;11.018;2022-11-15T02:27:24;7.10;99.90
7232;DHT22;3657;49.630;11.018;2022-11-15T02:30:18;7.10;99.90
7232;DHT22;3657;49.630;11.018;2022-11-15T02:32:49;7.20;99.90
7232;DHT22;3657;49.630;11.018;2022-11-15T02:35:25;7.30;99.90
7232;DHT22;3657;49.630;11.018;2022-11-15T02:37:56;7.40;99.90
7232;DHT22;3657;49.630;11.018;2022-11-15T02:40:34;7.50;99.90
7232;DHT22;3657;49.630;11.018;2022-11-15T02:43:07;7.60;99.90
7232;DHT22;3657;49.630;11.018;2022-11-15T02:45:56;7.60;99.90
7232;DHT22;3657;49.630;11.018;2022-11-15T02:48:26;7.60;99.90
7232;DHT22;3657;49.630;11.018;2022-11-15T02:50:53;7.60;99.90
7232;DHT22;3657;49.630;11.018;2022-11-15T02:53:24;7.70;99.90
7232;DHT22;3657;49.630;11.018;2022-11-15T02:55:52;7.70;99.90
7232;DHT22;3657;49.630;11.018;2022-11-15T03:01:21;7.70;99.90
7232;DHT22;3657;49.630;11.018;2022-11-15T03:04:01;7.70;99.90
7232;DHT22;3657;49.630;11.018;2022-11-15T03:06:34;7.70;99.90
7232;DHT22;3657;49.630;11.018;2022-11-15T03:09:06;7.80;99.90
7232;DHT22;3657;49.630;11.018;2022-11-15T03:11:37;7.90;99.90
7232;DHT22;3657;49.630;11.018;2022-11-15T03:14:16;7.90;99.90
7232;DHT22;3657;49.630;11.018;2022-11-15T03:16:48;7.90;99.90
7232;DHT22;3657;49.630;11.018;2022-11-15T03:19:23;7.80;99.90
7232;DHT22;3657;49.630;11.018;2022-11-15T03:21:53;7.70;99.90
7232;DHT22;3657;49.630;11.018;2022-11-15T03:24:23;7.60;99.90
7232;DHT22;3657;49.630;11.018;2022-11-15T03:26:53;7.40;99.90
7232;DHT22;3657;49.630;11.018;2022-11-15T03:29:24;7.30;99.90
7232;DHT22;3657;49.630;11.018;2022-11-15T03:31:56;7.30;99.90
7232;DHT22;3657;49.630;11.018;2022-11-15T03:34:28;7.20;99.90
7232;DHT22;3657;49.630;11.018;2022-11-15T03:36:56;7.10;99.90
7232;DHT22;3657;49.630;11.018;2022-11-15T03:39:23;7.10;99.90
7232;DHT22;3657;49.630;11.018;2022-11-15T03:41:56;7.10;99.90
7232;DHT22;3657;49.630;11.018;2022-11-15T03:44:34;7.00;99.90
7232;DHT22;3657;49.630;11.018;2022-11-15T03:47:07;7.00;99.90
7232;DHT22;3657;49.630;11.018;2022-11-15T03:49:38;7.00;99.90
7232;DHT22;3657;49.630;11.018;2022-11-15T03:52:10;6.90;99.90
7232;DHT22;3657;49.630;11.018;2022-11-15T03:54:44;6.90;99.90
7232;DHT22;3657;49.630;11.018;2022-11-15T03:57:13;6.90;99.90
7232;DHT22;3657;49.630;11.018;2022-11-15T03:59:40;6.90;99.90
7232;DHT22;3657;49.630;11.018;2022-11-15T04:02:08;6.80;99.90
7232;DHT22;3657;49.630;11.018;2022-11-15T04:04:35;6.80;99.90
7232;DHT22;3657;49.630;11.018;2022-11-15T04:07:01;6.70;99.90
7232;DHT22;3657;49.630;11.018;2022-11-15T04:09:28;6.70;99.90
7232;DHT22;3657;49.630;11.018;2022-11-15T04:11:55;6.70;99.90
7232;DHT22;3657;49.630;11.018;2022-11-15T04:14:21;6.70;99.90
7232;DHT22;3657;49.630;11.018;2022-11-15T04:16:48;6.70;99.90
7232;DHT22;3657;49.630;11.018;2022-11-15T04:19:16;6.70;99.90
7232;DHT22;3657;49.630;11.018;2022-11-15T04:22:09;6.70;99.90
7232;DHT22;3657;49.630;11.018;2022-11-15T04:24:53;6.70;99.90
7232;DHT22;3657;49.630;11.018;2022-11-15T04:27:20;6.70;99.90
7232;DHT22;3657;49.630;11.018;2022-11-15T04:29:47;6.70;99.90
7232;DHT22;3657;49.630;11.018;2022-11-15T04:32:13;6.60;99.90
7232;DHT22;3657;49.630;11.018;2022-11-15T04:34:41;6.60;99.90
7232;DHT22;3657;49.630;11.018;2022-11-15T04:37:08;6.60;99.90
7232;DHT22;3657;49.630;11.018;2022-11-15T04:39:37;6.60;99.90
7232;DHT22;3657;49.630;11.018;2022-11-15T04:42:03;6.60;99.90
7232;DHT22;3657;49.630;11.018;2022-11-15T04:44:30;6.60;99.90
7232;DHT22;3657;49.630;11.018;2022-11-15T04:46:57;6.60;99.90
7232;DHT22;3657;49.630;11.018;2022-11-15T04:49:23;6.60;99.90
7232;DHT22;3657;49.630;11.018;2022-11-15T04:51:52;6.60;99.90
7232;DHT22;3657;49.630;11.018;2022-11-15T04:54:19;6.60;99.90
7232;DHT22;3657;49.630;11.018;2022-11-15T04:56:45;6.50;99.90
7232;DHT22;3657;49.630;11.018;2022-11-15T04:59:12;6.40;99.90
7232;DHT22;3657;49.630;11.018;2022-11-15T05:01:39;6.40;99.90
7232;DHT22;3657;49.630;11.018;2022-11-15T05:04:06;6.40;99.90
7232;DHT22;3657;49.630;11.018;2022-11-15T05:06:48;6.40;99.90
7232;DHT22;3657;49.630;11.018;2022-11-15T05:09:17;6.40;99.90
7232;DHT22;3657;49.630;11.018;2022-11-15T05:11:44;6.40;99.90
7232;DHT22;3657;49.630;11.018;2022-11-15T05:14:11;6.40;99.90
7232;DHT22;3657;49.630;11.018;2022-11-15T05:16:38;6.40;99.90
7232;DHT22;3657;49.630;11.018;2022-11-15T05:19:05;6.40;99.90
7232;DHT22;3657;49.630;11.018;2022-11-15T05:21:33;6.40;99.90
7232;DHT22;3657;49.630;11.018;2022-11-15T05:24:00;6.30;99.90
7232;DHT22;3657;49.630;11.018;2022-11-15T05:26:29;6.30;99.90
7232;DHT22;3657;49.630;11.018;2022-11-15T05:28:56;6.30;99.90
7232;DHT22;3657;49.630;11.018;2022-11-15T05:31:24;6.30;99.90
7232;DHT22;3657;49.630;11.018;2022-11-15T05:33:52;6.30;99.90
7232;DHT22;3657;49.630;11.018;2022-11-15T05:36:24;6.30;99.90
7232;DHT22;3657;49.630;11.018;2022-11-15T05:38:52;6.30;99.90
7232;DHT22;3657;49.630;11.018;2022-11-15T05:41:22;6.30;99.90
7232;DHT22;3657;49.630;11.018;2022-11-15T05:43:53;6.20;99.90
7232;DHT22;3657;49.630;11.018;2022-11-15T05:46:20;6.20;99.90
7232;DHT22;3657;49.630;11.018;2022-11-15T05:48:49;6.20;99.90
7232;DHT22;3657;49.630;11.018;2022-11-15T05:51:18;6.20;99.90
7232;DHT22;3657;49.630;11.018;2022-11-15T05:53:46;6.10;99.90
7232;DHT22;3657;49.630;11.018;2022-11-15T05:56:13;6.10;99.90
7232;DHT22;3657;49.630;11.018;2022-11-15T05:58:41;6.10;99.90
7232;DHT22;3657;49.630;11.018;2022-11-15T06:01:09;6.10;99.90
7232;DHT22;3657;49.630;11.018;2022-11-15T06:03:36;6.10;99.90
7232;DHT22;3657;49.630;11.018;2022-11-15T06:06:03;6.10;99.90
7232;DHT22;3657;49.630;11.018;2022-11-15T06:08:30;6.00;99.90
7232;DHT22;3657;49.630;11.018;2022-11-15T06:10:56;6.10;99.90
7232;DHT22;3657;49.630;11.018;2022-11-15T06:13:28;6.10;99.90
7232;DHT22;3657;49.630;11.018;2022-11-15T06:15:55;6.00;99.90
7232;DHT22;3657;49.630;11.018;2022-11-15T06:18:24;6.00;99.90
7232;DHT22;3657;49.630;11.018;2022-11-15T06:20:50;6.00;99.90
7232;DHT22;3657;49.630;11.018;2022-11-15T06:23:17;5.90;99.90
7232;DHT22;3657;49.630;11.018;2022-11-15T06:25:44;5.90;99.90
7232;DHT22;3657;49.630;11.018;2022-11-15T06:28:10;5.90;99.90
7232;DHT22;3657;49.630;11.018;2022-11-15T06:30:37;5.80;99.90
7232;DHT22;3657;49.630;11.018;2022-11-15T06:33:05;5.80;99.90
7232;DHT22;3657;49.630;11.018;2022-11-15T06:35:35;5.80;99.90
7232;DHT22;3657;49.630;11.018;2022-11-15T06:38:04;5.80;99.90
7232;DHT22;3657;49.630;11.018;2022-11-15T06:40:33;5.80;99.90
7232;DHT22;3657;49.630;11.018;2022-11-15T06:43:01;5.70;99.90
7232;DHT22;3657;49.630;11.018;2022-11-15T06:45:28;5.80;99.90
7232;DHT22;3657;49.630;11.018;2022-11-15T06:47:54;5.80;99.90
7232;DHT22;3657;49.630;11.018;2022-11-15T06:50:21;5.80;99.90
7232;DHT22;3657;49.630;11.018;2022-11-15T06:52:49;5.80;99.90
7232;DHT22;3657;49.630;11.018;2022-11-15T06:55:16;5.80;99.90
7232;DHT22;3657;49.630;11.018;2022-11-15T06:57:47;5.80;99.90
7232;DHT22;3657;49.630;11.018;2022-11-15T07:00:15;5.80;99.90
7232;DHT22;3657;49.630;11.018;2022-11-15T07:02:41;5.80;99.90
7232;DHT22;3657;49.630;11.018;2022-11-15T07:05:08;5.80;99.90
7232;DHT22;3657;49.630;11.018;2022-11-15T07:07:35;5.80;99.90
7232;DHT22;3657;49.630;11.018;2022-11-15T07:10:04;5.70;99.90
7232;DHT22;3657;49.630;11.018;2022-11-15T07:12:31;5.70;99.90
7232;DHT22;3657;49.630;11.018;2022-11-15T07:14:57;5.70;99.90
7232;DHT22;3657;49.630;11.018;2022-11-15T07:17:24;5.70;99.90
7232;DHT22;3657;49.630;11.018;2022-11-15T07:19:51;5.70;99.90
7232;DHT22;3657;49.630;11.018;2022-11-15T07:22:17;5.70;99.90
7232;DHT22;3657;49.630;11.018;2022-11-15T07:24:44;5.70;99.90
7232;DHT22;3657;49.630;11.018;2022-11-15T07:27:12;5.70;99.90
7232;DHT22;3657;49.630;11.018;2022-11-15T07:29:39;5.70;99.90
7232;DHT22;3657;49.630;11.018;2022-11-15T07:32:05;5.70;99.90
7232;DHT22;3657;49.630;11.018;2022-11-15T07:34:32;5.70;99.90
7232;DHT22;3657;49.630;11.018;2022-11-15T07:36:59;5.60;99.90
7232;DHT22;3657;49.630;11.018;2022-11-15T07:39:25;5.70;99.90
7232;DHT22;3657;49.630;11.018;2022-11-15T07:41:52;5.60;99.90
7232;DHT22;3657;49.630;11.018;2022-11-15T07:44:41;5.70;99.90
7232;DHT22;3657;49.630;11.018;2022-11-15T07:47:07;5.70;99.90
7232;DHT22;3657;49.630;11.018;2022-11-15T07:49:34;5.70;99.90
7232;DHT22;3657;49.630;11.018;2022-11-15T07:52:01;5.80;99.90
7232;DHT22;3657;49.630;11.018;2022-11-15T07:54:28;5.80;99.90
7232;DHT22;3657;49.630;11.018;2022-11-15T07:56:54;5.80;99.90
7232;DHT22;3657;49.630;11.018;2022-11-15T07:59:21;5.80;99.90
7232;DHT22;3657;49.630;11.018;2022-11-15T08:01:49;5.80;99.90
7232;DHT22;3657;49.630;11.018;2022-11-15T08:04:16;5.90;99.90
7232;DHT22;3657;49.630;11.018;2022-11-15T08:06:42;5.90;99.90
7232;DHT22;3657;49.630;11.018;2022-11-15T08:09:09;5.90;99.90
7232;DHT22;3657;49.630;11.018;2022-11-15T08:11:36;6.00;99.90
7232;DHT22;3657;49.630;11.018;2022-11-15T08:14:03;6.00;99.90
7232;DHT22;3657;49.630;11.018;2022-11-15T08:16:29;6.00;99.90
7232;DHT22;3657;49.630;11.018;2022-11-15T08:18:58;6.10;99.90
7232;DHT22;3657;49.630;11.018;2022-11-15T08:21:25;6.10;99.90
7232;DHT22;3657;49.630;11.018;2022-11-15T08:23:52;6.20;99.90
7232;DHT22;3657;49.630;11.018;2022-11-15T08:26:18;6.20;99.90
7232;DHT22;3657;49.630;11.018;2022-11-15T08:28:45;6.30;99.90
7232;DHT22;3657;49.630;11.018;2022-11-15T08:31:14;6.30;99.90
7232;DHT22;3657;49.630;11.018;2022-11-15T08:33:42;6.30;99.90
7232;DHT22;3657;49.630;11.018;2022-11-15T08:36:13;6.40;99.90
7232;DHT22;3657;49.630;11.018;2022-11-15T08:38:40;6.40;99.90
7232;DHT22;3657;49.630;11.018;2022-11-15T08:41:07;6.40;99.90
7232;DHT22;3657;49.630;11.018;2022-11-15T08:43:36;6.50;99.90
7232;DHT22;3657;49.630;11.018;2022-11-15T08:46:03;6.70;99.90
7232;DHT22;3657;49.630;11.018;2022-11-15T08:48:30;6.80;99.90
7232;DHT22;3657;49.630;11.018;2022-11-15T08:50:57;6.90;99.90
7232;DHT22;3657;49.630;11.018;2022-11-15T08:53:25;7.10;99.90
7232;DHT22;3657;49.630;11.018;2022-11-15T08:55:52;7.40;99.90
7232;DHT22;3657;49.630;11.018;2022-11-15T08:58:18;7.60;99.90
7232;DHT22;3657;49.630;11.018;2022-11-15T09:00:45;8.00;99.90
7232;DHT22;3657;49.630;11.018;2022-11-15T09:03:12;8.40;99.90
7232;DHT22;3657;49.630;11.018;2022-11-15T09:05:38;8.80;99.90
7232;DHT22;3657;49.630;11.018;2022-11-15T09:08:05;9.10;99.90
7232;DHT22;3657;49.630;11.018;2022-11-15T09:10:33;9.60;99.90
7232;DHT22;3657;49.630;11.018;2022-11-15T09:13:00;10.00;99.90
7232;DHT22;3657;49.630;11.018;2022-11-15T09:15:27;10.10;99.90
7232;DHT22;3657;49.630;11.018;2022-11-15T09:17:53;10.30;99.90
7232;DHT22;3657;49.630;11.018;2022-11-15T09:20:20;10.60;99.90
7232;DHT22;3657;49.630;11.018;2022-11-15T09:22:47;10.80;99.90
7232;DHT22;3657;49.630;11.018;2022-11-15T09:25:13;11.10;99.90
7232;DHT22;3657;49.630;11.018;2022-11-15T09:27:41;11.20;99.90
7232;DHT22;3657;49.630;11.018;2022-11-15T09:30:09;11.10;99.90
7232;DHT22;3657;49.630;11.018;2022-11-15T09:32:35;11.30;99.90
7232;DHT22;3657;49.630;11.018;2022-11-15T09:35:02;11.40;99.90
7232;DHT22;3657;49.630;11.018;2022-11-15T09:37:31;11.50;99.90
7232;DHT22;3657;49.630;11.018;2022-11-15T09:39:58;11.60;99.90
7232;DHT22;3657;49.630;11.018;2022-11-15T09:42:48;11.80;99.90
7232;DHT22;3657;49.630;11.018;2022-11-15T09:45:22;12.10;99.90
7232;DHT22;3657;49.630;11.018;2022-11-15T09:50:54;12.80;99.90
7232;DHT22;3657;49.630;11.018;2022-11-15T09:53:27;13.10;99.90
7232;DHT22;3657;49.630;11.018;2022-11-15T09:55:59;13.30;99.90
7232;DHT22;3657;49.630;11.018;2022-11-15T09:58:36;13.30;99.90
7232;DHT22;3657;49.630;11.018;2022-11-15T10:01:08;13.40;99.90
7232;DHT22;3657;49.630;11.018;2022-11-15T10:03:40;13.60;99.90
7232;DHT22;3657;49.630;11.018;2022-11-15T10:06:17;13.90;99.90
7232;DHT22;3657;49.630;11.018;2022-11-15T10:08:51;14.00;99.90
7232;DHT22;3657;49.630;11.018;2022-11-15T10:11:23;14.00;99.90
7232;DHT22;3657;49.630;11.018;2022-11-15T10:13:53;14.20;99.90
7232;DHT22;3657;49.630;11.018;2022-11-15T10:16:32;14.30;99.90
7232;DHT22;3657;49.630;11.018;2022-11-15T10:19:07;14.50;99.90
7232;DHT22;3657;49.630;11.018;2022-11-15T10:21:44;14.50;99.90
7232;DHT22;3657;49.630;11.018;2022-11-15T10:24:19;14.70;99.90
7232;DHT22;3657;49.630;11.018;2022-11-15T10:26:46;14.70;99.90
7232;DHT22;3657;49.630;11.018;2022-11-15T10:29:19;14.70;99.90
7232;DHT22;3657;49.630;11.018;2022-11-15T10:31:46;14.70;99.90
7232;DHT22;3657;49.630;11.018;2022-11-15T10:34:14;14.80;99.90
7232;DHT22;3657;49.630;11.018;2022-11-15T10:36:44;15.00;99.90
7232;DHT22;3657;49.630;11.018;2022-11-15T10:39:12;15.30;99.90
7232;DHT22;3657;49.630;11.018;2022-11-15T10:41:40;15.50;99.90
7232;DHT22;3657;49.630;11.018;2022-11-15T10:44:20;15.80;99.20
7232;DHT22;3657;49.630;11.018;2022-11-15T10:46:48;16.00;99.20
7232;DHT22;3657;49.630;11.018;2022-11-15T10:49:17;16.20;98.90
7232;DHT22;3657;49.630;11.018;2022-11-15T10:51:46;16.40;99.40
7232;DHT22;3657;49.630;11.018;2022-11-15T10:54:18;16.50;99.40
7232;DHT22;3657;49.630;11.018;2022-11-15T10:56:50;16.50;98.30
7232;DHT22;3657;49.630;11.018;2022-11-15T10:59:23;16.60;99.20
7232;DHT22;3657;49.630;11.018;2022-11-15T11:01:50;16.50;99.90
7232;DHT22;3657;49.630;11.018;2022-11-15T11:04:17;16.50;99.90
7232;DHT22;3657;49.630;11.018;2022-11-15T11:06:49;16.60;99.90
7232;DHT22;3657;49.630;11.018;2022-11-15T11:09:33;16.60;97.00
7232;DHT22;3657;49.630;11.018;2022-11-15T11:12:01;16.70;96.80
7232;DHT22;3657;49.630;11.018;2022-11-15T11:14:31;16.90;97.00
7232;DHT22;3657;49.630;11.018;2022-11-15T11:17:04;16.90;96.40
7232;DHT22;3657;49.630;11.018;2022-11-15T11:19:44;16.90;97.40
7232;DHT22;3657;49.630;11.018;2022-11-15T11:22:20;17.10;99.90
7232;DHT22;3657;49.630;11.018;2022-11-15T11:24:56;17.10;99.60
7232;DHT22;3657;49.630;11.018;2022-11-15T11:27:40;17.20;98.40
7232;DHT22;3657;49.630;11.018;2022-11-15T11:30:14;17.20;99.00
7232;DHT22;3657;49.630;11.018;2022-11-15T11:32:56;17.20;99.90
7232;DHT22;3657;49.630;11.018;2022-11-15T11:35:30;17.10;99.90
7232;DHT22;3657;49.630;11.018;2022-11-15T11:38:11;16.90;99.90
7232;DHT22;3657;49.630;11.018;2022-11-15T11:40:44;16.80;99.90
7232;DHT22;3657;49.630;11.018;2022-11-15T11:43:23;16.70;99.90
7232;DHT22;3657;49.630;11.018;2022-11-15T11:48:55;16.50;99.90
7232;DHT22;3657;49.630;11.018;2022-11-15T11:51:26;16.40;99.90
7232;DHT22;3657;49.630;11.018;2022-11-15T11:53:57;16.40;99.90
7232;DHT22;3657;49.630;11.018;2022-11-15T11:56:28;16.30;99.90
7232;DHT22;3657;49.630;11.018;2022-11-15T11:59:00;16.20;99.90
7232;DHT22;3657;49.630;11.018;2022-11-15T12:01:32;16.20;99.90
7232;DHT22;3657;49.630;11.018;2022-11-15T12:04:04;16.20;99.90
7232;DHT22;3657;49.630;11.018;2022-11-15T12:06:35;16.10;99.90
7232;DHT22;3657;49.630;11.018;2022-11-15T12:09:19;16.10;99.90
7232;DHT22;3657;49.630;11.018;2022-11-15T12:11:52;16.00;99.90
7232;DHT22;3657;49.630;11.018;2022-11-15T12:14:27;16.00;99.90
7232;DHT22;3657;49.630;11.018;2022-11-15T12:16:57;16.00;99.90
7232;DHT22;3657;49.630;11.018;2022-11-15T12:19:25;16.00;99.90
7232;DHT22;3657;49.630;11.018;2022-11-15T12:21:55;16.00;99.90
7232;DHT22;3657;49.630;11.018;2022-11-15T12:24:28;15.90;99.90
7232;DHT22;3657;49.630;11.018;2022-11-15T12:27:00;15.90;99.90
7232;DHT22;3657;49.630;11.018;2022-11-15T12:29:31;15.90;99.90
7232;DHT22;3657;49.630;11.018;2022-11-15T12:32:01;15.90;99.90
7232;DHT22;3657;49.630;11.018;2022-11-15T12:34:36;16.00;99.90
7232;DHT22;3657;49.630;11.018;2022-11-15T12:37:46;16.00;99.90
7232;DHT22;3657;49.630;11.018;2022-11-15T12:40:25;16.10;99.90
7232;DHT22;3657;49.630;11.018;2022-11-15T12:45:52;16.20;99.90
7232;DHT22;3657;49.630;11.018;2022-11-15T12:55:00;16.20;99.90
7232;DHT22;3657;49.630;11.018;2022-11-15T12:57:42;16.30;99.90
7232;DHT22;3657;49.630;11.018;2022-11-15T13:03:21;16.30;99.90
7232;DHT22;3657;49.630;11.018;2022-11-15T13:08:51;16.30;99.90
7232;DHT22;3657;49.630;11.018;2022-11-15T13:11:45;16.30;99.90
7232;DHT22;3657;49.630;11.018;2022-11-15T13:14:44;16.20;99.90
7232;DHT22;3657;49.630;11.018;2022-11-15T13:17:39;16.20;99.90
7232;DHT22;3657;49.630;11.018;2022-11-15T13:20:21;16.20;99.90
7232;DHT22;3657;49.630;11.018;2022-11-15T13:22:50;16.20;99.90
7232;DHT22;3657;49.630;11.018;2022-11-15T13:25:21;16.10;99.90
7232;DHT22;3657;49.630;11.018;2022-11-15T13:27:51;16.10;99.90
7232;DHT22;3657;49.630;11.018;2022-11-15T13:30:21;16.00;99.90
7232;DHT22;3657;49.630;11.018;2022-11-15T13:32:49;16.00;99.90
7232;DHT22;3657;49.630;11.018;2022-11-15T13:35:20;15.90;99.90
7232;DHT22;3657;49.630;11.018;2022-11-15T13:37:48;15.90;99.90
7232;DHT22;3657;49.630;11.018;2022-11-15T13:40:20;15.80;99.90
7232;DHT22;3657;49.630;11.018;2022-11-15T13:42:47;15.70;99.90
7232;DHT22;3657;49.630;11.018;2022-11-15T13:45:18;15.70;99.90
7232;DHT22;3657;49.630;11.018;2022-11-15T13:47:47;15.70;99.90
7232;DHT22;3657;49.630;11.018;2022-11-15T13:50:17;15.60;99.90
7232;DHT22;3657;49.630;11.018;2022-11-15T13:52:46;15.60;99.90
7232;DHT22;3657;49.630;11.018;2022-11-15T13:55:16;15.60;99.90
7232;DHT22;3657;49.630;11.018;2022-11-15T13:57:45;15.50;99.90
7232;DHT22;3657;49.630;11.018;2022-11-15T14:00:32;15.50;99.90
7232;DHT22;3657;49.630;11.018;2022-11-15T14:03:07;15.50;99.90
7232;DHT22;3657;49.630;11.018;2022-11-15T14:05:34;15.40;99.90
7232;DHT22;3657;49.630;11.018;2022-11-15T14:08:03;15.40;99.90
7232;DHT22;3657;49.630;11.018;2022-11-15T14:10:32;15.40;99.90
7232;DHT22;3657;49.630;11.018;2022-11-15T14:13:01;15.40;99.90
7232;DHT22;3657;49.630;11.018;2022-11-15T14:15:32;15.30;99.90
7232;DHT22;3657;49.630;11.018;2022-11-15T14:17:59;15.30;99.90
7232;DHT22;3657;49.630;11.018;2022-11-15T14:20:29;15.20;99.90
7232;DHT22;3657;49.630;11.018;2022-11-15T14:22:59;15.20;99.90
7232;DHT22;3657;49.630;11.018;2022-11-15T14:25:27;15.10;99.90
7232;DHT22;3657;49.630;11.018;2022-11-15T14:28:28;15.10;99.90
7232;DHT22;3657;49.630;11.018;2022-11-15T14:30:58;15.00;99.90
7232;DHT22;3657;49.630;11.018;2022-11-15T14:33:28;15.00;99.90
7232;DHT22;3657;49.630;11.018;2022-11-15T14:35:56;14.90;99.90
7232;DHT22;3657;49.630;11.018;2022-11-15T14:38:24;14.90;99.90
7232;DHT22;3657;49.630;11.018;2022-11-15T14:40:51;14.80;99.90
7232;DHT22;3657;49.630;11.018;2022-11-15T14:43:19;14.80;99.90
7232;DHT22;3657;49.630;11.018;2022-11-15T14:45:46;14.70;99.90
7232;DHT22;3657;49.630;11.018;2022-11-15T14:48:14;14.60;99.90
7232;DHT22;3657;49.630;11.018;2022-11-15T14:50:41;14.40;99.90
7232;DHT22;3657;49.630;11.018;2022-11-15T14:53:11;14.30;99.90
7232;DHT22;3657;49.630;11.018;2022-11-15T14:55:39;14.20;99.90
7232;DHT22;3657;49.630;11.018;2022-11-15T14:58:07;14.10;99.90
7232;DHT22;3657;49.630;11.018;2022-11-15T15:00:35;14.00;99.90
7232;DHT22;3657;49.630;11.018;2022-11-15T15:03:02;14.00;99.90
7232;DHT22;3657;49.630;11.018;2022-11-15T15:05:33;14.00;99.90
7232;DHT22;3657;49.630;11.018;2022-11-15T15:08:00;14.00;99.90
7232;DHT22;3657;49.630;11.018;2022-11-15T15:10:30;14.00;99.90
7232;DHT22;3657;49.630;11.018;2022-11-15T15:12:58;14.00;99.90
7232;DHT22;3657;49.630;11.018;2022-11-15T15:15:27;14.00;99.90
7232;DHT22;3657;49.630;11.018;2022-11-15T15:17:56;13.90;99.90
7232;DHT22;3657;49.630;11.018;2022-11-15T15:20:22;13.80;99.90
7232;DHT22;3657;49.630;11.018;2022-11-15T15:22:50;13.70;99.90
7232;DHT22;3657;49.630;11.018;2022-11-15T15:25:26;13.70;99.90
7232;DHT22;3657;49.630;11.018;2022-11-15T15:27:53;13.60;99.90
7232;DHT22;3657;49.630;11.018;2022-11-15T15:30:20;13.40;99.90
7232;DHT22;3657;49.630;11.018;2022-11-15T15:32:47;13.30;99.90
7232;DHT22;3657;49.630;11.018;2022-11-15T15:35:16;13.20;99.90
7232;DHT22;3657;49.630;11.018;2022-11-15T15:37:44;13.20;99.90
7232;DHT22;3657;49.630;11.018;2022-11-15T15:40:14;13.20;99.90
7232;DHT22;3657;49.630;11.018;2022-11-15T15:42:41;13.20;99.90
7232;DHT22;3657;49.630;11.018;2022-11-15T15:45:08;13.20;99.90
7232;DHT22;3657;49.630;11.018;2022-11-15T15:47:35;13.20;99.90
7232;DHT22;3657;49.630;11.018;2022-11-15T15:50:03;13.20;99.90
7232;DHT22;3657;49.630;11.018;2022-11-15T15:52:30;13.20;99.90
7232;DHT22;3657;49.630;11.018;2022-11-15T15:54:57;13.20;99.90
7232;DHT22;3657;49.630;11.018;2022-11-15T15:57:25;13.10;99.90
7232;DHT22;3657;49.630;11.018;2022-11-15T15:59:51;13.10;99.90
7232;DHT22;3657;49.630;11.018;2022-11-15T16:02:18;13.00;99.90
7232;DHT22;3657;49.630;11.018;2022-11-15T16:04:45;13.00;99.90
7232;DHT22;3657;49.630;11.018;2022-11-15T16:07:17;13.00;99.90
7232;DHT22;3657;49.630;11.018;2022-11-15T16:09:49;12.90;99.90
7232;DHT22;3657;49.630;11.018;2022-11-15T16:12:29;12.90;99.90
7232;DHT22;3657;49.630;11.018;2022-11-15T16:14:57;12.90;99.90
7232;DHT22;3657;49.630;11.018;2022-11-15T16:17:25;12.80;99.90
7232;DHT22;3657;49.630;11.018;2022-11-15T16:19:52;12.80;99.90
7232;DHT22;3657;49.630;11.018;2022-11-15T16:22:19;12.70;99.90
7232;DHT22;3657;49.630;11.018;2022-11-15T16:24:46;12.60;99.90
7232;DHT22;3657;49.630;11.018;2022-11-15T16:27:14;12.60;99.90
7232;DHT22;3657;49.630;11.018;2022-11-15T16:29:43;12.50;99.90
7232;DHT22;3657;49.630;11.018;2022-11-15T16:32:10;12.30;99.90
7232;DHT22;3657;49.630;11.018;2022-11-15T16:34:37;12.20;99.90
7232;DHT22;3657;49.630;11.018;2022-11-15T16:37:03;12.00;99.90
7232;DHT22;3657;49.630;11.018;2022-11-15T16:39:31;11.90;99.90